Time;durP1;ratioP1;P1;durP2;ratioP2;P2;SDS_P1;SDS_P2;PMS_P1;PMS_P2;Temp;Humidity;BMP_temperature;BMP_pressure;BME280_temperature;BME280_humidity;BME280_pressure;Samples;Min_cycle;Max_cycle;Signal;HPM_P1;HPM_P2
2021/12/31 00:04:24;;;;;;;44.27;22.20;;;;;;;5.46;100.00;100038.38;21068062;27;20236;-66
2021/12/31 00:14:28;;;;;;;46.67;24.87;;;;;;;5.56;100.00;100038.78;21064489;27;20322;-66
2021/12/31 00:34:27;;;;;;;62.63;26.60;;;;;;;5.63;100.00;100049.03;20901648;27;21162;-64
2021/12/31 00:44:31;;;;;;;71.60;28.70;;;;;;;5.55;100.00;100048.56;20891691;28;20252;-68
2021/12/31 00:54:35;;;;;;;111.73;30.20;;;;;;;5.44;100.00;100072.00;20935810;28;20633;-65
2021/12/31 01:04:39;;;;;;;192.57;29.50;;;;;;;5.34;100.00;100071.56;20971094;28;20251;-66
2021/12/31 01:14:53;;;;;;;203.47;26.70;;;;;;;5.31;100.00;100065.59;20970430;28;20243;-66
2021/12/31 01:24:57;;;;;;;177.87;23.43;;;;;;;5.28;100.00;100060.44;20970940;28;20227;-67
2021/12/31 01:35:00;;;;;;;207.23;25.53;;;;;;;5.29;100.00;100063.00;20985330;28;20249;-65
2021/12/31 01:45:08;;;;;;;169.97;22.77;;;;;;;5.34;100.00;100078.66;20835363;28;20228;-66
2021/12/31 01:55:13;;;;;;;179.73;21.23;;;;;;;5.35;100.00;100061.84;20831635;28;20236;-65
2021/12/31 02:05:19;;;;;;;156.97;18.23;;;;;;;5.38;100.00;100067.88;20831035;28;20255;-65
2021/12/31 02:15:22;;;;;;;155.90;17.93;;;;;;;5.42;100.00;100064.16;20830267;28;20229;-65
2021/12/31 02:25:27;;;;;;;142.37;15.47;;;;;;;5.51;100.00;100068.16;20829089;28;20237;-65
2021/12/31 02:35:35;;;;;;;135.47;15.13;;;;;;;5.68;100.00;100059.38;20828783;28;20248;-66
2021/12/31 02:45:40;;;;;;;196.87;17.30;;;;;;;5.82;100.00;100077.25;20826757;28;20316;-66
2021/12/31 02:55:45;;;;;;;225.97;21.63;;;;;;;5.89;100.00;100082.22;20825094;28;20260;-65
2021/12/31 03:05:50;;;;;;;185.73;17.63;;;;;;;5.92;100.00;100066.16;20808384;28;20599;-66
2021/12/31 03:15:54;;;;;;;172.50;16.83;;;;;;;5.88;100.00;100077.84;20824452;28;20245;-66
2021/12/31 03:25:57;;;;;;;144.60;16.43;;;;;;;5.88;100.00;100076.97;20807348;28;20230;-65
2021/12/31 03:36:00;;;;;;;233.17;19.30;;;;;;;5.85;100.00;100074.47;20822843;28;20333;-66
2021/12/31 03:46:04;;;;;;;230.10;22.40;;;;;;;5.99;100.00;100064.94;20822868;28;20236;-66
2021/12/31 03:56:07;;;;;;;214.87;21.33;;;;;;;6.10;100.00;100067.06;20823119;28;20795;-65
2021/12/31 04:06:10;;;;;;;305.67;28.47;;;;;;;6.33;100.00;100084.44;20824774;28;20267;-65
2021/12/31 04:16:14;;;;;;;127.77;15.70;;;;;;;6.41;100.00;100071.66;20824272;28;20203;-65
2021/12/31 04:26:17;;;;;;;136.70;13.93;;;;;;;6.43;100.00;100088.34;20825737;28;20327;-65
2021/12/31 04:36:21;;;;;;;162.67;16.83;;;;;;;6.51;100.00;100075.56;20824801;28;20183;-66
2021/12/31 04:46:24;;;;;;;171.00;16.57;;;;;;;6.66;100.00;100101.25;20824694;28;20283;-67
2021/12/31 04:56:28;;;;;;;150.83;13.03;;;;;;;6.72;100.00;100097.44;20825149;28;20194;-66
2021/12/31 05:06:31;;;;;;;176.70;15.10;;;;;;;6.80;100.00;100090.81;20838059;28;20326;-66
2021/12/31 05:16:35;;;;;;;182.73;15.77;;;;;;;6.86;100.00;100087.84;20830749;28;20654;-67
2021/12/31 05:26:39;;;;;;;113.93;11.73;;;;;;;6.88;100.00;100075.34;20837751;28;20234;-67
2021/12/31 05:36:42;;;;;;;108.00;11.43;;;;;;;6.88;100.00;100081.59;20837246;28;20703;-66
2021/12/31 05:46:47;;;;;;;131.60;12.67;;;;;;;6.82;100.00;100082.78;20836657;28;20668;-67
2021/12/31 05:56:52;;;;;;;135.00;13.17;;;;;;;6.85;100.00;100083.47;20834763;28;20200;-68
2021/12/31 06:06:55;;;;;;;85.80;10.73;;;;;;;6.95;100.00;100082.97;20836142;28;20681;-67
2021/12/31 06:17:05;;;;;;;131.63;12.30;;;;;;;6.93;100.00;100092.81;20833378;28;20199;-67
2021/12/31 06:27:09;;;;;;;125.07;12.60;;;;;;;6.96;100.00;100084.69;20832262;28;20279;-67
2021/12/31 06:37:14;;;;;;;92.87;11.13;;;;;;;7.03;100.00;100096.69;20831546;28;20273;-67
2021/12/31 06:47:17;;;;;;;60.13;9.73;;;;;;;7.13;100.00;100097.91;20825523;28;20254;-66
2021/12/31 06:57:20;;;;;;;74.60;9.47;;;;;;;7.24;100.00;100100.88;20824777;28;20187;-65
2021/12/31 07:07:24;;;;;;;49.73;7.73;;;;;;;7.28;100.00;100094.44;20829952;28;20254;-65
2021/12/31 07:17:29;;;;;;;55.77;8.50;;;;;;;7.37;100.00;100101.88;20828948;28;20217;-65
2021/12/31 07:27:33;;;;;;;54.03;9.97;;;;;;;7.49;100.00;100111.84;20828336;28;20231;-65
2021/12/31 07:37:37;;;;;;;43.33;9.87;;;;;;;7.55;100.00;100116.81;20827483;28;20231;-64
2021/12/31 07:47:40;;;;;;;66.50;11.63;;;;;;;7.68;100.00;100110.84;20827532;28;21293;-65
2021/12/31 07:57:44;;;;;;;55.03;12.47;;;;;;;7.80;100.00;100115.47;20826788;28;20191;-65
2021/12/31 08:07:47;;;;;;;87.40;25.93;;;;;;;7.92;100.00;100109.44;20825556;28;20218;-65
2021/12/31 08:17:50;;;;;;;37.90;14.87;;;;;;;8.08;100.00;100105.00;20825748;28;20195;-66
2021/12/31 08:27:53;;;;;;;38.80;12.77;;;;;;;8.20;100.00;100101.63;20825049;28;20227;-65
2021/12/31 08:37:57;;;;;;;33.67;10.73;;;;;;;8.30;100.00;100097.47;20823415;28;20192;-65
2021/12/31 08:48:01;;;;;;;25.70;9.57;;;;;;;8.47;100.00;100090.31;20825915;28;20311;-64
2021/12/31 08:58:04;;;;;;;27.47;12.43;;;;;;;8.55;100.00;100093.41;20839349;28;20200;-64
2021/12/31 09:08:08;;;;;;;31.67;15.20;;;;;;;8.72;100.00;100097.69;20822111;28;20259;-64
2021/12/31 09:18:11;;;;;;;34.33;17.00;;;;;;;8.73;100.00;100092.28;20839148;28;20188;-64
2021/12/31 09:28:15;;;;;;;31.27;15.80;;;;;;;8.68;100.00;100091.72;20827855;28;20250;-64
2021/12/31 09:38:19;;;;;;;20.77;10.90;;;;;;;8.64;100.00;100092.84;20827780;28;20200;-65
2021/12/31 09:48:24;;;;;;;14.50;9.17;;;;;;;8.67;100.00;100084.69;20826834;28;20618;-65
2021/12/31 09:58:28;;;;;;;14.33;8.40;;;;;;;8.71;100.00;100072.91;20827139;28;20249;-64
2021/12/31 10:08:40;;;;;;;12.57;8.47;;;;;;;8.96;100.00;100067.78;20834102;28;20276;-64
2021/12/31 10:18:43;;;;;;;16.37;11.00;;;;;;;9.16;100.00;100073.72;20834762;28;20674;-64
2021/12/31 10:28:58;;;;;;;15.03;11.00;;;;;;;9.29;100.00;100064.00;20833254;28;20232;-65
2021/12/31 10:39:24;;;;;;;17.63;13.07;;;;;;;9.38;100.00;100055.44;20832559;28;20246;-64
2021/12/31 10:49:28;;;;;;;21.80;15.17;;;;;;;9.42;100.00;100051.59;20830521;28;20223;-66
2021/12/31 10:59:37;;;;;;;23.20;16.37;;;;;;;9.52;100.00;100044.75;20830301;28;20208;-66
2021/12/31 11:09:42;;;;;;;30.90;19.83;;;;;;;9.51;100.00;100040.38;20817980;28;20228;-67
2021/12/31 11:19:48;;;;;;;32.50;19.17;;;;;;;9.52;100.00;100023.44;20817104;28;20189;-67
2021/12/31 11:29:51;;;;;;;28.10;18.57;;;;;;;9.50;100.00;100009.38;20815624;28;20224;-66
2021/12/31 11:40:33;;;;;;;27.90;17.60;;;;;;;9.61;100.00;100012.19;20824529;28;20279;-66
2021/12/31 11:50:37;;;;;;;26.50;18.57;;;;;;;9.67;100.00;99995.78;20826203;28;20224;-66
2021/12/31 12:00:40;;;;;;;26.10;18.07;;;;;;;9.74;100.00;99999.78;20825840;28;20594;-67
2021/12/31 12:10:44;;;;;;;28.60;21.07;;;;;;;9.72;100.00;99993.69;20825420;28;20227;-65
2021/12/31 12:20:50;;;;;;;43.83;29.13;;;;;;;9.77;100.00;100009.38;20825536;28;20638;-65
2021/12/31 12:31:05;;;;;;;41.10;26.83;;;;;;;9.89;100.00;99994.38;20824803;28;20242;-65
2021/12/31 12:41:09;;;;;;;33.33;23.43;;;;;;;9.90;100.00;99993.44;20784720;28;20219;-66
2021/12/31 12:51:15;;;;;;;27.63;21.13;;;;;;;9.90;100.00;99996.91;20791850;28;21067;-66
2021/12/31 13:01:20;;;;;;;27.10;19.30;;;;;;;9.90;100.00;99986.25;20796025;28;20201;-65
2021/12/31 13:11:23;;;;;;;25.47;18.97;;;;;;;9.83;100.00;99989.44;20786889;28;20290;-65
2021/12/31 13:21:27;;;;;;;27.07;18.27;;;;;;;9.92;100.00;99981.69;20795740;28;20640;-65
2021/12/31 13:31:35;;;;;;;24.40;18.27;;;;;;;10.01;100.00;99974.91;20786905;28;20260;-65
2021/12/31 13:41:48;;;;;;;30.77;21.17;;;;;;;9.98;100.00;99972.44;20787189;22;20319;-66
2021/12/31 13:51:59;;;;;;;24.77;19.37;;;;;;;9.93;100.00;99969.22;20663354;28;20782;-67
2021/12/31 14:02:02;;;;;;;24.73;18.63;;;;;;;9.86;100.00;99967.94;20667914;28;20196;-65
2021/12/31 14:12:06;;;;;;;27.20;19.90;;;;;;;9.77;100.00;99963.22;20698004;28;20708;-65
2021/12/31 14:22:11;;;;;;;27.10;19.17;;;;;;;9.76;100.00;99973.03;20662842;28;20237;-66
2021/12/31 14:32:14;;;;;;;28.23;20.67;;;;;;;9.74;100.00;99970.47;20677892;28;20584;-68
2021/12/31 14:42:23;;;;;;;30.90;19.90;;;;;;;9.82;100.00;99971.75;20700521;28;20764;-65
2021/12/31 14:52:28;;;;;;;27.17;20.77;;;;;;;9.81;100.00;99973.56;20721832;28;20228;-67
2021/12/31 15:02:32;;;;;;;25.70;20.13;;;;;;;9.79;100.00;99964.81;20619457;28;20253;-66
2021/12/31 15:12:36;;;;;;;25.83;19.43;;;;;;;9.78;100.00;99948.94;20690680;28;20326;-67
2021/12/31 15:22:40;;;;;;;27.87;18.63;;;;;;;9.72;100.00;99956.38;20688549;28;20328;-67
2021/12/31 15:32:44;;;;;;;21.27;16.43;;;;;;;9.67;100.00;99953.16;20711251;28;20323;-67
2021/12/31 15:42:49;;;;;;;24.40;17.70;;;;;;;9.68;100.00;99949.53;20837338;28;20223;-68
2021/12/31 15:52:58;;;;;;;22.93;16.20;;;;;;;9.63;100.00;99926.84;20847040;28;20592;-66
2021/12/31 16:03:05;;;;;;;22.60;14.50;;;;;;;9.62;100.00;99933.13;20876105;28;20235;-67
2021/12/31 16:13:11;;;;;;;18.70;13.37;;;;;;;9.60;100.00;99922.56;20871220;28;20741;-68
2021/12/31 16:23:17;;;;;;;16.67;12.97;;;;;;;9.51;100.00;99909.88;20842633;28;20238;-66
2021/12/31 16:33:20;;;;;;;15.23;11.73;;;;;;;9.46;100.00;99911.97;20861348;28;20318;-67
2021/12/31 16:43:27;;;;;;;14.03;12.10;;;;;;;9.50;100.00;99902.81;20873358;28;20227;-67
2021/12/31 16:53:31;;;;;;;14.73;13.10;;;;;;;9.51;100.00;99885.03;20764238;28;20232;-68
2021/12/31 17:03:38;;;;;;;13.27;11.13;;;;;;;9.51;100.00;99888.56;20795163;28;20917;-66
2021/12/31 17:13:41;;;;;;;11.13;9.93;;;;;;;9.48;100.00;99890.56;20806706;28;20236;-68
2021/12/31 17:23:45;;;;;;;11.47;10.17;;;;;;;9.45;100.00;99870.31;20820297;28;20603;-69
2021/12/31 17:33:48;;;;;;;11.03;9.70;;;;;;;9.48;100.00;99867.44;20803762;28;20255;-68
2021/12/31 17:43:52;;;;;;;10.67;8.73;;;;;;;9.48;100.00;99851.47;20868215;28;20227;-67
2021/12/31 17:53:55;;;;;;;9.57;8.57;;;;;;;9.44;100.00;99871.25;20902427;28;20247;-66
2021/12/31 18:03:58;;;;;;;10.07;8.20;;;;;;;9.51;100.00;99869.91;20901470;28;20239;-67
2021/12/31 18:14:02;;;;;;;9.17;8.17;;;;;;;9.55;100.00;99858.06;20899668;28;20224;-67
2021/12/31 18:24:07;;;;;;;8.27;7.00;;;;;;;9.60;100.00;99855.97;20896813;28;20234;-67
2021/12/31 18:34:10;;;;;;;9.30;8.40;;;;;;;9.55;100.00;99874.06;20901882;28;20776;-68
2021/12/31 18:44:14;;;;;;;10.40;7.97;;;;;;;9.56;100.00;99870.44;20904702;28;20250;-67
2021/12/31 18:54:17;;;;;;;9.27;7.53;;;;;;;9.59;100.00;99864.06;20907253;28;20228;-65
2021/12/31 19:04:20;;;;;;;9.33;7.20;;;;;;;9.59;100.00;99854.25;20904952;28;20310;-65
2021/12/31 19:14:24;;;;;;;9.13;7.40;;;;;;;9.63;100.00;99850.44;20904374;28;20631;-66
2021/12/31 19:24:29;;;;;;;8.43;7.13;;;;;;;9.65;100.00;99856.53;20887220;28;20786;-65
2021/12/31 19:34:33;;;;;;;8.87;7.30;;;;;;;9.62;100.00;99854.06;20904061;28;20243;-64
2021/12/31 19:44:36;;;;;;;9.20;8.30;;;;;;;9.59;100.00;99853.41;20902047;28;20767;-64
2021/12/31 20:14:32;;;;;;;12.03;9.47;;;;;;;9.47;100.00;99880.84;21032123;27;20633;-63
2021/12/31 20:24:35;;;;;;;11.57;8.97;;;;;;;9.52;100.00;99858.31;20968713;28;20355;-65
2021/12/31 20:34:39;;;;;;;10.93;8.97;;;;;;;9.53;100.00;99880.47;20978662;28;20221;-65
2021/12/31 20:44:43;;;;;;;9.70;8.40;;;;;;;9.59;100.00;99872.03;21020264;28;20577;-61
2021/12/31 20:54:48;;;;;;;9.57;8.60;;;;;;;9.62;100.00;99875.38;21031376;28;20313;-62
2021/12/31 21:04:51;;;;;;;12.67;10.67;;;;;;;9.60;100.00;99889.75;21010986;28;20348;-69
2021/12/31 21:14:55;;;;;;;10.20;9.20;;;;;;;9.61;100.00;99896.78;21024830;28;20229;-63
2021/12/31 21:24:58;;;;;;;11.03;9.10;;;;;;;9.61;100.00;99892.31;20959872;28;20234;-62
2021/12/31 21:35:02;;;;;;;11.90;10.70;;;;;;;9.59;100.00;99898.69;20899037;28;20223;-63
2021/12/31 21:45:08;;;;;;;11.80;10.63;;;;;;;9.59;100.00;99910.19;20934964;28;20306;-65
2021/12/31 22:05:10;;;;;;;12.60;11.30;;;;;;;9.55;100.00;99906.03;20954250;27;20643;-64
2021/12/31 22:15:13;;;;;;;14.27;12.77;;;;;;;9.51;100.00;99899.22;20958761;28;20231;-67
2021/12/31 22:25:17;;;;;;;13.20;11.90;;;;;;;9.49;100.00;99905.59;20935678;28;20294;-64
2021/12/31 22:35:20;;;;;;;14.23;12.83;;;;;;;9.49;100.00;99903.78;20949635;28;20233;-65
2021/12/31 22:45:27;;;;;;;14.30;12.80;;;;;;;9.49;100.00;99903.78;20941992;28;20234;-63
2021/12/31 22:55:31;;;;;;;14.00;12.60;;;;;;;9.48;100.00;99926.03;20945909;28;20235;-63
2021/12/31 23:05:35;;;;;;;86.13;71.57;;;;;;;9.49;100.00;99938.41;20942711;28;20231;-62
2021/12/31 23:15:38;;;;;;;82.47;63.73;;;;;;;9.44;100.00;99940.50;20885081;28;20227;-62
2021/12/31 23:25:42;;;;;;;36.37;30.50;;;;;;;9.41;100.00;99923.88;20914867;28;20738;-63
2021/12/31 23:45:44;;;;;;;32.20;25.20;;;;;;;9.33;100.00;99927.03;21016504;27;20619;-60
2021/12/31 23:55:47;;;;;;;30.10;22.40;;;;;;;9.34;100.00;99939.41;20973401;28;20244;-60
